GAF1501 EDDB-EDHL
Flight info
| Callsign | GAF1501 |
|---|---|
| Flight time | 0h 35m |
| Altitude | 22000 |
| Route | SUKIP4B/06L SUKIP M748 RARUP RARUP2V |
| Aircraft | A319/M-SDE3FGHIRWY/LB1 |
Departure
| Time | 2026-05-06 12:32 |
|---|---|
| Airport | Berlin Brandenburg Airport (EDDB) |
Arrival
| Time | 2026-05-06 13:07 |
|---|---|
| Airport | Lübeck Blankensee Airport (EDHL) |
| Time | Latitude | Longitude | Altitude | Speed | Heading |
|---|---|---|---|---|---|
| 2026-05-06 12:09 | 52.38077 | 13.50871 | 155 ft | 0 kts | 57° |
| 2026-05-06 12:24 | 52.38078 | 13.50873 | 155 ft | 1 kts | 57° |
| 2026-05-06 12:24 | 52.38090 | 13.50904 | 155 ft | 3 kts | 57° |
| 2026-05-06 12:24 | 52.38109 | 13.50960 | 155 ft | 8 kts | 72° |
| 2026-05-06 12:24 | 52.38095 | 13.51066 | 155 ft | 10 kts | 114° |
| 2026-05-06 12:25 | 52.38046 | 13.51138 | 155 ft | 10 kts | 157° |
| 2026-05-06 12:25 | 52.38001 | 13.51121 | 155 ft | 7 kts | 232° |
| 2026-05-06 12:25 | 52.37966 | 13.51031 | 157 ft | 12 kts | 238° |
| 2026-05-06 12:25 | 52.37917 | 13.50902 | 155 ft | 15 kts | 238° |
| 2026-05-06 12:26 | 52.37851 | 13.50735 | 155 ft | 19 kts | 237° |
| 2026-05-06 12:26 | 52.37771 | 13.50532 | 155 ft | 24 kts | 237° |
| 2026-05-06 12:26 | 52.37674 | 13.50283 | 155 ft | 29 kts | 238° |
| 2026-05-06 12:26 | 52.37567 | 13.50011 | 155 ft | 29 kts | 237° |
| 2026-05-06 12:27 | 52.37452 | 13.49715 | 155 ft | 32 kts | 238° |
| 2026-05-06 12:27 | 52.37325 | 13.49394 | 156 ft | 36 kts | 237° |
| 2026-05-06 12:27 | 52.37223 | 13.49129 | 155 ft | 29 kts | 238° |
| 2026-05-06 12:27 | 52.37133 | 13.48901 | 155 ft | 20 kts | 234° |
| 2026-05-06 12:28 | 52.37054 | 13.48700 | 155 ft | 20 kts | 240° |
| 2026-05-06 12:28 | 52.36969 | 13.48598 | 155 ft | 0 kts | 194° |
| 2026-05-06 12:29 | 52.36965 | 13.48596 | 155 ft | 2 kts | 194° |
| 2026-05-06 12:29 | 52.36952 | 13.48591 | 155 ft | 0 kts | 194° |
| 2026-05-06 12:30 | 52.36937 | 13.48584 | 155 ft | 4 kts | 195° |
| 2026-05-06 12:31 | 52.36901 | 13.48565 | 155 ft | 7 kts | 198° |
| 2026-05-06 12:31 | 52.36844 | 13.48545 | 155 ft | 9 kts | 174° |
| 2026-05-06 12:31 | 52.36804 | 13.48632 | 155 ft | 11 kts | 94° |
| 2026-05-06 12:31 | 52.36872 | 13.48938 | 155 ft | 59 kts | 68° |
| 2026-05-06 12:32 | 52.37102 | 13.49911 | 155 ft | 123 kts | 69° |
| 2026-05-06 12:32 | 52.37463 | 13.51456 | 453 ft | 152 kts | 69° |
| 2026-05-06 12:32 | 52.37824 | 13.53070 | 1303 ft | 151 kts | 66° |
| 2026-05-06 12:32 | 52.38217 | 13.54713 | 1923 ft | 167 kts | 65° |
| 2026-05-06 12:33 | 52.38676 | 13.56611 | 2444 ft | 193 kts | 65° |
| 2026-05-06 12:33 | 52.39198 | 13.58782 | 3123 ft | 217 kts | 67° |
| 2026-05-06 12:33 | 52.39819 | 13.61191 | 3857 ft | 242 kts | 60° |
| 2026-05-06 12:33 | 52.41042 | 13.63202 | 4683 ft | 259 kts | 27° |
| 2026-05-06 12:34 | 52.42775 | 13.64200 | 5763 ft | 269 kts | 14° |
| 2026-05-06 12:34 | 52.44589 | 13.65195 | 6836 ft | 280 kts | 16° |
| 2026-05-06 12:34 | 52.46441 | 13.66310 | 7964 ft | 288 kts | 17° |
| 2026-05-06 12:34 | 52.48364 | 13.67281 | 9102 ft | 291 kts | 4° |
| 2026-05-06 12:35 | 52.50364 | 13.67106 | 10116 ft | 288 kts | 339° |
| 2026-05-06 12:35 | 52.52168 | 13.65672 | 10662 ft | 301 kts | 316° |
| 2026-05-06 12:35 | 52.53486 | 13.62972 | 11269 ft | 308 kts | 292° |
| 2026-05-06 12:35 | 52.54336 | 13.59706 | 12144 ft | 314 kts | 289° |
| 2026-05-06 12:36 | 52.55191 | 13.56371 | 13069 ft | 320 kts | 289° |
| 2026-05-06 12:36 | 52.56072 | 13.52982 | 13935 ft | 325 kts | 289° |
| 2026-05-06 12:36 | 52.56977 | 13.49540 | 14758 ft | 330 kts | 289° |
| 2026-05-06 12:36 | 52.57895 | 13.46055 | 15569 ft | 335 kts | 289° |
| 2026-05-06 12:37 | 52.58825 | 13.42519 | 16381 ft | 339 kts | 289° |
| 2026-05-06 12:37 | 52.59763 | 13.38940 | 17191 ft | 343 kts | 289° |
| 2026-05-06 12:37 | 52.60713 | 13.35302 | 18010 ft | 348 kts | 289° |
| 2026-05-06 12:37 | 52.61658 | 13.31671 | 18724 ft | 352 kts | 289° |
| 2026-05-06 12:38 | 52.62625 | 13.27942 | 19416 ft | 356 kts | 289° |
| 2026-05-06 12:38 | 52.63602 | 13.24159 | 20134 ft | 361 kts | 289° |
| 2026-05-06 12:38 | 52.64587 | 13.20332 | 20847 ft | 365 kts | 289° |
| 2026-05-06 12:38 | 52.65585 | 13.16462 | 21516 ft | 370 kts | 289° |
| 2026-05-06 12:39 | 52.66591 | 13.12551 | 21773 ft | 372 kts | 289° |
| 2026-05-06 12:39 | 52.67587 | 13.08675 | 21815 ft | 363 kts | 289° |
| 2026-05-06 12:39 | 52.68567 | 13.04861 | 21816 ft | 360 kts | 289° |
| 2026-05-06 12:39 | 52.69529 | 13.01116 | 21816 ft | 359 kts | 289° |
| 2026-05-06 12:40 | 52.70502 | 12.97321 | 21818 ft | 359 kts | 289° |
| 2026-05-06 12:40 | 52.71471 | 12.93528 | 21818 ft | 359 kts | 289° |
| 2026-05-06 12:40 | 52.72436 | 12.89725 | 21819 ft | 359 kts | 289° |
| 2026-05-06 12:40 | 52.73398 | 12.85927 | 21821 ft | 359 kts | 289° |
| 2026-05-06 12:41 | 52.74363 | 12.82124 | 21816 ft | 359 kts | 289° |
| 2026-05-06 12:41 | 52.75328 | 12.78326 | 21818 ft | 359 kts | 289° |
| 2026-05-06 12:41 | 52.76294 | 12.74522 | 21825 ft | 359 kts | 289° |
| 2026-05-06 12:41 | 52.77259 | 12.70720 | 21825 ft | 359 kts | 289° |
| 2026-05-06 12:42 | 52.78222 | 12.66922 | 21837 ft | 359 kts | 289° |
| 2026-05-06 12:42 | 52.79171 | 12.63169 | 21829 ft | 359 kts | 289° |
| 2026-05-06 12:42 | 52.80127 | 12.59359 | 21824 ft | 360 kts | 289° |
| 2026-05-06 12:42 | 52.81083 | 12.55537 | 21827 ft | 360 kts | 289° |
| 2026-05-06 12:43 | 52.82040 | 12.51710 | 21827 ft | 360 kts | 289° |
| 2026-05-06 12:43 | 52.82997 | 12.47885 | 21827 ft | 360 kts | 289° |
| 2026-05-06 12:43 | 52.83952 | 12.44052 | 21828 ft | 360 kts | 289° |
| 2026-05-06 12:43 | 52.84906 | 12.40217 | 21836 ft | 361 kts | 289° |
| 2026-05-06 12:44 | 52.85861 | 12.36372 | 21836 ft | 361 kts | 289° |
| 2026-05-06 12:44 | 52.86801 | 12.32582 | 21834 ft | 361 kts | 289° |
| 2026-05-06 12:44 | 52.87754 | 12.28747 | 21832 ft | 360 kts | 289° |
| 2026-05-06 12:44 | 52.88708 | 12.24915 | 21834 ft | 360 kts | 289° |
| 2026-05-06 12:45 | 52.89661 | 12.21073 | 21843 ft | 360 kts | 289° |
| 2026-05-06 12:45 | 52.90610 | 12.17233 | 21840 ft | 361 kts | 289° |
| 2026-05-06 12:45 | 52.92503 | 12.09536 | 21837 ft | 361 kts | 289° |
| 2026-05-06 12:46 | 52.93445 | 12.05683 | 21837 ft | 361 kts | 289° |
| 2026-05-06 12:46 | 52.94389 | 12.01816 | 21841 ft | 361 kts | 289° |
| 2026-05-06 12:46 | 52.95316 | 11.98013 | 21839 ft | 361 kts | 289° |
| 2026-05-06 12:46 | 52.96257 | 11.94151 | 21839 ft | 361 kts | 289° |
| 2026-05-06 12:47 | 52.97195 | 11.90290 | 21836 ft | 361 kts | 289° |
| 2026-05-06 12:47 | 52.98136 | 11.86423 | 21837 ft | 361 kts | 289° |
| 2026-05-06 12:47 | 52.99076 | 11.82562 | 21837 ft | 361 kts | 289° |
| 2026-05-06 12:47 | 53.00014 | 11.78693 | 21837 ft | 361 kts | 289° |
| 2026-05-06 12:48 | 53.00951 | 11.74827 | 21838 ft | 361 kts | 289° |
| 2026-05-06 12:48 | 53.01886 | 11.70961 | 21833 ft | 362 kts | 289° |
| 2026-05-06 12:48 | 53.02822 | 11.67076 | 21833 ft | 363 kts | 289° |
| 2026-05-06 12:48 | 53.03746 | 11.63232 | 21837 ft | 363 kts | 289° |
| 2026-05-06 12:49 | 53.04681 | 11.59337 | 21835 ft | 363 kts | 289° |
| 2026-05-06 12:49 | 53.05613 | 11.55444 | 21692 ft | 361 kts | 289° |
| 2026-05-06 12:49 | 53.06536 | 11.51585 | 21322 ft | 357 kts | 289° |
| 2026-05-06 12:49 | 53.07446 | 11.47779 | 20957 ft | 353 kts | 289° |
| 2026-05-06 12:50 | 53.08348 | 11.43995 | 20609 ft | 350 kts | 289° |
| 2026-05-06 12:50 | 53.09241 | 11.40234 | 20250 ft | 348 kts | 289° |
| 2026-05-06 12:50 | 53.10114 | 11.36556 | 19902 ft | 346 kts | 289° |
| 2026-05-06 12:50 | 53.11044 | 11.32873 | 19563 ft | 345 kts | 294° |
| 2026-05-06 12:51 | 53.12318 | 11.29493 | 19211 ft | 346 kts | 304° |
| 2026-05-06 12:51 | 53.13954 | 11.26544 | 18872 ft | 348 kts | 315° |
| 2026-05-06 12:51 | 53.15893 | 11.24114 | 18541 ft | 350 kts | 323° |
| 2026-05-06 12:51 | 53.17899 | 11.21825 | 18210 ft | 349 kts | 322° |
| 2026-05-06 12:52 | 53.19888 | 11.19540 | 17838 ft | 345 kts | 322° |
| 2026-05-06 12:52 | 53.21842 | 11.17286 | 17477 ft | 339 kts | 322° |
| 2026-05-06 12:52 | 53.23770 | 11.15056 | 17108 ft | 335 kts | 322° |
| 2026-05-06 12:52 | 53.25651 | 11.12878 | 16743 ft | 332 kts | 322° |
| 2026-05-06 12:53 | 53.27537 | 11.10690 | 16387 ft | 329 kts | 322° |
| 2026-05-06 12:53 | 53.29407 | 11.08520 | 16017 ft | 326 kts | 322° |
| 2026-05-06 12:53 | 53.31261 | 11.06365 | 15661 ft | 324 kts | 322° |
| 2026-05-06 12:53 | 53.33104 | 11.04220 | 15311 ft | 322 kts | 322° |
| 2026-05-06 12:54 | 53.34939 | 11.02083 | 14964 ft | 320 kts | 323° |
| 2026-05-06 12:54 | 53.36762 | 10.99957 | 14615 ft | 319 kts | 323° |
| 2026-05-06 12:54 | 53.38576 | 10.97837 | 14274 ft | 318 kts | 323° |
| 2026-05-06 12:54 | 53.40382 | 10.95721 | 13942 ft | 316 kts | 323° |
| 2026-05-06 12:55 | 53.42155 | 10.93642 | 13598 ft | 315 kts | 323° |
| 2026-05-06 12:55 | 53.43950 | 10.91537 | 13223 ft | 314 kts | 323° |
| 2026-05-06 12:55 | 53.45733 | 10.89446 | 12860 ft | 312 kts | 324° |
| 2026-05-06 12:55 | 53.47509 | 10.87366 | 12494 ft | 311 kts | 325° |
| 2026-05-06 12:56 | 53.49279 | 10.85296 | 12136 ft | 311 kts | 325° |
| 2026-05-06 12:56 | 53.51054 | 10.83216 | 11779 ft | 310 kts | 325° |
| 2026-05-06 12:56 | 53.52815 | 10.81143 | 11426 ft | 308 kts | 325° |
| 2026-05-06 12:56 | 53.54557 | 10.79084 | 11074 ft | 305 kts | 325° |
| 2026-05-06 12:57 | 53.56257 | 10.77069 | 10738 ft | 302 kts | 326° |
| 2026-05-06 12:57 | 53.57965 | 10.75046 | 10396 ft | 299 kts | 326° |
| 2026-05-06 12:57 | 53.59656 | 10.73051 | 10052 ft | 294 kts | 326° |
| 2026-05-06 12:57 | 53.61313 | 10.71096 | 9716 ft | 288 kts | 326° |
| 2026-05-06 12:58 | 53.62846 | 10.68984 | 9338 ft | 283 kts | 313° |
| 2026-05-06 12:58 | 53.63915 | 10.66241 | 8972 ft | 280 kts | 294° |
| 2026-05-06 12:58 | 53.64420 | 10.63090 | 8606 ft | 279 kts | 276° |
| 2026-05-06 12:58 | 53.64581 | 10.59855 | 8236 ft | 276 kts | 275° |
| 2026-05-06 12:59 | 53.64739 | 10.56655 | 7874 ft | 273 kts | 275° |
| 2026-05-06 12:59 | 53.64896 | 10.53513 | 7529 ft | 272 kts | 275° |
| 2026-05-06 12:59 | 53.65055 | 10.50364 | 7167 ft | 267 kts | 275° |
| 2026-05-06 12:59 | 53.65211 | 10.47287 | 6819 ft | 260 kts | 275° |
| 2026-05-06 13:00 | 53.65383 | 10.44293 | 6467 ft | 253 kts | 281° |
| 2026-05-06 13:00 | 53.66001 | 10.41588 | 6132 ft | 246 kts | 306° |
| 2026-05-06 13:00 | 53.67142 | 10.39533 | 5769 ft | 238 kts | 328° |
| 2026-05-06 13:00 | 53.68601 | 10.38335 | 5406 ft | 231 kts | 346° |
| 2026-05-06 13:01 | 53.70120 | 10.37503 | 5053 ft | 228 kts | 346° |
| 2026-05-06 13:01 | 53.71639 | 10.36768 | 4577 ft | 228 kts | 357° |
| 2026-05-06 13:01 | 53.73113 | 10.37291 | 4174 ft | 216 kts | 33° |
| 2026-05-06 13:01 | 53.74106 | 10.39035 | 3941 ft | 202 kts | 64° |
| 2026-05-06 13:02 | 53.74576 | 10.41228 | 3687 ft | 196 kts | 72° |
| 2026-05-06 13:02 | 53.74993 | 10.43377 | 3442 ft | 190 kts | 71° |
| 2026-05-06 13:02 | 53.75401 | 10.45470 | 3208 ft | 184 kts | 71° |
| 2026-05-06 13:02 | 53.75789 | 10.47458 | 2957 ft | 173 kts | 71° |
| 2026-05-06 13:03 | 53.76150 | 10.49312 | 2729 ft | 162 kts | 71° |
| 2026-05-06 13:03 | 53.76487 | 10.51041 | 2521 ft | 144 kts | 71° |
| 2026-05-06 13:03 | 53.76769 | 10.52491 | 2344 ft | 123 kts | 71° |
| 2026-05-06 13:03 | 53.77026 | 10.53810 | 2180 ft | 115 kts | 70° |
| 2026-05-06 13:04 | 53.77273 | 10.55080 | 2029 ft | 113 kts | 70° |
| 2026-05-06 13:04 | 53.77516 | 10.56326 | 1878 ft | 110 kts | 69° |
| 2026-05-06 13:04 | 53.77754 | 10.57553 | 1726 ft | 110 kts | 69° |
| 2026-05-06 13:04 | 53.77992 | 10.58788 | 1543 ft | 112 kts | 72° |
| 2026-05-06 13:05 | 53.78236 | 10.60040 | 1400 ft | 112 kts | 70° |
| 2026-05-06 13:05 | 53.78482 | 10.61304 | 1244 ft | 112 kts | 68° |
| 2026-05-06 13:05 | 53.78722 | 10.62546 | 1090 ft | 110 kts | 69° |
| 2026-05-06 13:05 | 53.78955 | 10.63775 | 876 ft | 114 kts | 70° |
| 2026-05-06 13:06 | 53.79192 | 10.65068 | 782 ft | 116 kts | 70° |
| 2026-05-06 13:06 | 53.79444 | 10.66376 | 604 ft | 116 kts | 68° |
| 2026-05-06 13:06 | 53.79702 | 10.67680 | 459 ft | 116 kts | 68° |
| 2026-05-06 13:06 | 53.79956 | 10.68997 | 351 ft | 117 kts | 68° |
| 2026-05-06 13:07 | 53.80218 | 10.70283 | 110 ft | 114 kts | 64° |
| 2026-05-06 13:07 | 53.80444 | 10.71431 | 68 ft | 81 kts | 73° |
| 2026-05-06 13:07 | 53.80526 | 10.71899 | 56 ft | 19 kts | 72° |
| 2026-05-06 13:07 | 53.80589 | 10.71921 | 59 ft | 13 kts | 292° |
| 2026-05-06 13:08 | 53.80621 | 10.71787 | 56 ft | 8 kts | 291° |
| 2026-05-06 13:08 | 53.80649 | 10.71667 | 58 ft | 14 kts | 292° |
| 2026-05-06 13:08 | 53.80649 | 10.71495 | 62 ft | 16 kts | 251° |
| 2026-05-06 13:08 | 53.80611 | 10.71296 | 60 ft | 20 kts | 252° |
| 2026-05-06 13:09 | 53.80567 | 10.71067 | 60 ft | 20 kts | 252° |
| 2026-05-06 13:09 | 53.80521 | 10.70824 | 58 ft | 23 kts | 252° |
| 2026-05-06 13:09 | 53.80478 | 10.70604 | 58 ft | 18 kts | 251° |
| 2026-05-06 13:09 | 53.80443 | 10.70422 | 53 ft | 17 kts | 252° |
| 2026-05-06 13:10 | 53.80432 | 10.70297 | 58 ft | 7 kts | 319° |
| 2026-05-06 13:10 | 53.80460 | 10.70254 | 55 ft | 3 kts | 327° |
| 2026-05-06 13:10 | 53.80464 | 10.70250 | 56 ft | 0 kts | 327° |